createdAt,value
2017-11-12T00:00:39.735Z,83.30
2017-11-12T00:03:07.910Z,83.30
2017-11-12T00:05:36.788Z,83.40
2017-11-12T00:08:04.896Z,83.40
2017-11-12T00:10:33.054Z,83.20
2017-11-12T00:13:01.249Z,83.20
2017-11-12T00:15:30.213Z,83.20
2017-11-12T00:17:58.383Z,83.20
2017-11-12T00:20:26.571Z,83.30
2017-11-12T00:22:55.542Z,83.40
2017-11-12T00:25:24.536Z,83.30
2017-11-12T00:27:53.431Z,83.70
2017-11-12T00:30:21.812Z,83.60
2017-11-12T00:32:49.980Z,83.70
2017-11-12T00:35:18.103Z,83.90
2017-11-12T00:37:46.237Z,84.00
2017-11-12T00:40:14.380Z,84.00
2017-11-12T00:42:43.260Z,84.30
2017-11-12T00:45:12.179Z,84.30
2017-11-12T00:47:40.352Z,84.30
2017-11-12T00:50:08.527Z,84.40
2017-11-12T00:52:36.698Z,84.50
2017-11-12T00:55:05.702Z,84.80
2017-11-12T00:57:33.863Z,84.90
2017-11-12T01:00:02.756Z,84.70
2017-11-12T01:02:30.866Z,84.70
2017-11-12T01:04:59.102Z,84.70
2017-11-12T01:07:27.207Z,84.70
2017-11-12T01:09:55.341Z,84.80
2017-11-12T01:12:23.478Z,84.70
2017-11-12T01:14:51.693Z,84.80
2017-11-12T01:17:20.583Z,84.90
2017-11-12T01:19:49.460Z,85.00
2017-11-12T01:22:17.644Z,85.00
2017-11-12T01:24:46.528Z,85.20
2017-11-12T01:27:14.673Z,85.30
2017-11-12T01:29:43.566Z,85.40
2017-11-12T01:32:12.489Z,85.50
2017-11-12T01:34:40.781Z,85.40
2017-11-12T01:37:09.044Z,85.70
2017-11-12T01:39:37.252Z,85.80
2017-11-12T01:42:05.359Z,85.90
2017-11-12T01:44:34.273Z,86.50
2017-11-12T01:47:03.139Z,86.80
2017-11-12T01:49:32.019Z,86.40
2017-11-12T01:52:00.943Z,83.30
2017-11-12T01:54:29.832Z,82.30
2017-11-12T01:56:58.725Z,81.80
2017-11-12T01:59:26.857Z,81.80
2017-11-12T02:01:54.975Z,81.30
2017-11-12T02:04:23.092Z,81.10
2017-11-12T02:06:51.314Z,80.90
2017-11-12T02:09:20.205Z,80.20
2017-11-12T02:11:49.080Z,80.80
2017-11-12T02:14:17.274Z,80.80
2017-11-12T02:16:45.440Z,80.70
2017-11-12T02:19:14.329Z,80.90
2017-11-12T02:21:42.503Z,80.90
2017-11-12T02:24:10.614Z,80.80
2017-11-12T02:26:39.567Z,81.20
2017-11-12T02:29:08.456Z,81.50
2017-11-12T02:31:36.632Z,82.10
2017-11-12T02:34:04.761Z,81.80
2017-11-12T02:36:33.693Z,80.80
2017-11-12T02:39:02.584Z,81.50
2017-11-12T02:41:30.694Z,81.40
2017-11-12T02:43:58.930Z,81.70
2017-11-12T02:46:27.031Z,81.70
2017-11-12T02:48:55.225Z,82.20
2017-11-12T02:51:23.344Z,82.30
2017-11-12T02:53:52.227Z,82.40
2017-11-12T02:56:20.344Z,82.40
2017-11-12T02:58:48.467Z,82.00
2017-11-12T03:01:16.584Z,82.20
2017-11-12T03:03:44.802Z,82.40
2017-11-12T03:06:13.668Z,82.40
2017-11-12T03:08:41.887Z,82.40
2017-11-12T03:11:09.992Z,82.40
2017-11-12T03:13:38.131Z,82.30
2017-11-12T03:16:07.011Z,82.40
2017-11-12T03:18:35.891Z,82.20
2017-11-12T03:21:04.800Z,82.00
2017-11-12T03:23:33.899Z,82.00
2017-11-12T03:26:02.044Z,82.30
2017-11-12T03:28:30.960Z,82.60
2017-11-12T03:30:59.132Z,82.60
2017-11-12T03:33:27.249Z,82.10
2017-11-12T03:35:55.373Z,82.10
2017-11-12T03:38:23.510Z,82.10
2017-11-12T03:40:52.454Z,81.90
2017-11-12T03:43:20.604Z,81.90
2017-11-12T03:45:48.785Z,82.10
2017-11-12T03:48:16.923Z,81.90
2017-11-12T03:50:45.848Z,82.30
2017-11-12T03:53:14.023Z,81.60
2017-11-12T03:55:42.152Z,82.00
2017-11-12T03:58:10.271Z,82.10
2017-11-12T04:00:38.442Z,81.90
2017-11-12T04:03:06.570Z,81.30
2017-11-12T04:05:35.503Z,81.90
2017-11-12T04:08:03.677Z,81.90
2017-11-12T04:10:31.773Z,81.80
2017-11-12T04:12:59.904Z,82.20
2017-11-12T04:15:28.204Z,82.10
2017-11-12T04:17:56.374Z,81.70
2017-11-12T04:20:24.512Z,81.70
2017-11-12T04:22:53.440Z,81.70
2017-11-12T04:25:21.545Z,81.70
2017-11-12T04:27:49.661Z,81.20
2017-11-12T04:30:17.852Z,81.20
2017-11-12T04:32:46.741Z,81.80
2017-11-12T04:35:14.912Z,81.80
2017-11-12T04:37:43.776Z,81.20
2017-11-12T04:40:12.664Z,80.90
2017-11-12T04:42:41.582Z,80.80
2017-11-12T04:45:10.473Z,80.40
2017-11-12T04:47:38.644Z,80.40
2017-11-12T04:50:06.778Z,80.40
2017-11-12T04:52:34.992Z,80.60
2017-11-12T04:55:03.099Z,81.30
2017-11-12T04:57:31.216Z,80.80
2017-11-12T04:59:59.410Z,80.80
2017-11-12T05:02:27.503Z,80.30
2017-11-12T05:04:55.652Z,80.10
2017-11-12T05:07:24.542Z,79.80
2017-11-12T05:09:53.535Z,80.10
2017-11-12T05:12:22.414Z,80.30
2017-11-12T05:14:50.600Z,80.30
2017-11-12T05:17:19.487Z,80.90
2017-11-12T05:19:48.376Z,80.80
2017-11-12T05:22:16.470Z,80.80
2017-11-12T05:24:44.619Z,80.90
2017-11-12T05:27:12.723Z,81.10
2017-11-12T05:29:40.868Z,80.70
2017-11-12T05:32:09.037Z,80.60
2017-11-12T05:34:37.152Z,80.90
2017-11-12T05:37:05.284Z,80.90
2017-11-12T05:39:33.392Z,80.90
2017-11-12T05:42:01.533Z,81.10
2017-11-12T05:44:29.700Z,80.90
2017-11-12T05:46:58.593Z,80.40
2017-11-12T05:49:26.688Z,80.40
2017-11-12T05:51:54.835Z,80.90
2017-11-12T05:54:23.008Z,80.90
2017-11-12T05:56:51.185Z,80.40
2017-11-12T05:59:19.352Z,80.80
2017-11-12T06:01:48.242Z,80.90
2017-11-12T06:04:16.349Z,80.90
2017-11-12T06:06:44.486Z,81.10
2017-11-12T06:09:12.593Z,80.70
2017-11-12T06:11:40.720Z,80.80
2017-11-12T06:14:08.911Z,80.90
2017-11-12T06:16:37.080Z,80.90
2017-11-12T06:19:05.193Z,81.20
2017-11-12T06:21:33.350Z,81.20
2017-11-12T06:24:01.464Z,80.90
2017-11-12T06:26:30.380Z,81.20
2017-11-12T06:28:59.269Z,81.00
2017-11-12T06:31:27.446Z,81.00
2017-11-12T06:33:56.335Z,80.80
2017-11-12T06:36:24.437Z,80.90
2017-11-12T06:38:52.576Z,80.90
2017-11-12T06:41:20.752Z,81.00
2017-11-12T06:43:48.894Z,81.20
2017-11-12T06:46:17.816Z,81.20
2017-11-12T06:48:45.990Z,81.10
2017-11-12T06:51:14.105Z,81.20
2017-11-12T06:53:42.230Z,81.20
2017-11-12T06:56:10.342Z,81.20
2017-11-12T06:58:38.482Z,81.00
2017-11-12T07:01:06.635Z,80.80
2017-11-12T07:03:35.512Z,80.60
2017-11-12T07:06:04.426Z,80.50
2017-11-12T07:08:33.339Z,80.00
2017-11-12T07:11:01.444Z,80.00
2017-11-12T07:13:29.589Z,80.10
2017-11-12T07:15:57.733Z,80.10
2017-11-12T07:18:26.626Z,80.30
2017-11-12T07:20:54.738Z,80.30
2017-11-12T07:23:22.899Z,80.30
2017-11-12T07:25:51.147Z,80.20
2017-11-12T07:28:19.314Z,80.30
2017-11-12T07:30:48.208Z,81.10
2017-11-12T07:33:16.321Z,81.10
2017-11-12T07:35:45.984Z,80.90
2017-11-12T07:38:14.872Z,80.30
2017-11-12T07:40:42.984Z,80.30
2017-11-12T07:43:11.113Z,80.10
2017-11-12T07:45:39.210Z,80.10
2017-11-12T07:48:07.359Z,80.10
2017-11-12T07:50:35.450Z,80.10
2017-11-12T07:53:03.604Z,80.40
2017-11-12T07:55:31.780Z,80.70
2017-11-12T07:57:59.950Z,80.50
2017-11-12T08:00:28.841Z,80.40
2017-11-12T08:02:56.963Z,80.50
2017-11-12T08:05:25.076Z,80.90
2017-11-12T08:07:53.256Z,80.90
2017-11-12T08:10:21.381Z,80.90
2017-11-12T08:12:49.501Z,80.90
2017-11-12T08:15:17.628Z,80.90
2017-11-12T08:17:45.850Z,81.00
2017-11-12T08:20:14.740Z,80.90
2017-11-12T08:22:43.646Z,80.90
2017-11-12T08:25:11.752Z,80.90
2017-11-12T08:27:39.898Z,80.90
2017-11-12T08:30:08.004Z,80.80
2017-11-12T08:32:36.939Z,81.50
2017-11-12T08:35:05.062Z,80.80
2017-11-12T08:37:33.297Z,80.50
2017-11-12T08:40:01.407Z,80.30
2017-11-12T08:42:29.645Z,80.60
2017-11-12T08:44:57.753Z,81.20
2017-11-12T08:47:25.973Z,81.00
2017-11-12T08:49:54.098Z,80.30
2017-11-12T08:52:22.218Z,80.80
2017-11-12T08:54:50.345Z,81.40
2017-11-12T08:57:19.280Z,81.80
2017-11-12T08:59:47.389Z,81.20
2017-11-12T09:02:15.525Z,81.00
2017-11-12T09:04:43.702Z,81.20
2017-11-12T09:07:11.825Z,81.10
2017-11-12T09:09:40.045Z,80.50
2017-11-12T09:12:08.912Z,81.00
2017-11-12T09:14:37.822Z,80.90
2017-11-12T09:17:06.005Z,80.90
2017-11-12T09:19:34.168Z,81.10
2017-11-12T09:22:02.284Z,80.60
2017-11-12T09:24:30.414Z,80.60
2017-11-12T09:26:58.544Z,80.50
2017-11-12T09:29:26.667Z,80.60
2017-11-12T09:31:54.833Z,80.30
2017-11-12T09:34:22.942Z,80.00
2017-11-12T09:36:51.075Z,80.30
2017-11-12T09:39:19.212Z,79.80
2017-11-12T09:41:48.095Z,80.70
2017-11-12T09:44:17.127Z,80.40
2017-11-12T09:46:45.305Z,80.30
2017-11-12T09:49:13.445Z,80.50
2017-11-12T09:51:42.324Z,81.60
2017-11-12T09:54:11.254Z,81.40
2017-11-12T09:56:39.357Z,81.40
2017-11-12T09:59:07.625Z,81.10
2017-11-12T10:01:35.778Z,80.70
2017-11-12T10:04:03.932Z,81.30
2017-11-12T10:06:32.817Z,81.60
2017-11-12T10:09:01.737Z,81.00
2017-11-12T10:11:29.921Z,81.00
2017-11-12T10:13:58.034Z,81.30
2017-11-12T10:16:26.960Z,81.60
2017-11-12T10:18:55.226Z,81.60
2017-11-12T10:21:23.409Z,82.30
2017-11-12T10:23:51.582Z,81.70
2017-11-12T10:26:20.493Z,81.70
2017-11-12T10:28:48.632Z,81.60
2017-11-12T10:31:17.505Z,81.50
2017-11-12T10:33:46.426Z,81.90
2017-11-12T10:36:16.212Z,81.50
2017-11-12T10:38:45.093Z,81.30
2017-11-12T10:41:14.127Z,81.20
2017-11-12T10:43:42.244Z,81.20
2017-11-12T10:46:10.383Z,81.50
2017-11-12T10:48:38.535Z,81.80
2017-11-12T10:51:07.528Z,81.50
2017-11-12T10:53:35.698Z,81.50
2017-11-12T10:56:04.138Z,81.40
2017-11-12T10:58:33.034Z,81.80
2017-11-12T11:01:01.903Z,82.50
2017-11-12T11:03:31.674Z,82.00
2017-11-12T11:05:59.778Z,81.90
2017-11-12T11:08:27.908Z,82.10
2017-11-12T11:10:56.399Z,82.30
2017-11-12T11:13:24.667Z,82.60
2017-11-12T11:15:52.838Z,83.00
2017-11-12T11:18:20.980Z,83.20
2017-11-12T11:20:49.191Z,83.20
2017-11-12T11:23:17.463Z,83.70
2017-11-12T11:25:46.668Z,83.50
2017-11-12T11:28:14.835Z,83.50
2017-11-12T11:30:43.712Z,83.60
2017-11-12T11:33:11.899Z,83.60
2017-11-12T11:35:40.027Z,83.80
2017-11-12T11:38:08.246Z,83.80
2017-11-12T11:40:36.366Z,84.30
2017-11-12T11:43:04.490Z,83.80
2017-11-12T11:45:32.668Z,84.00
2017-11-12T11:48:01.113Z,83.80
2017-11-12T11:50:30.032Z,84.00
2017-11-12T11:52:58.923Z,84.00
2017-11-12T11:55:27.404Z,84.00
2017-11-12T11:57:56.293Z,84.50
2017-11-12T12:00:25.189Z,84.80
2017-11-12T12:02:53.464Z,84.80
2017-11-12T12:05:22.353Z,85.50
2017-11-12T12:07:50.532Z,85.50
2017-11-12T12:10:18.991Z,85.70
2017-11-12T12:12:47.182Z,85.30
2017-11-12T12:15:15.351Z,84.10
2017-11-12T12:17:43.512Z,82.90
2017-11-12T12:20:11.644Z,81.40
2017-11-12T12:22:39.766Z,81.20
2017-11-12T12:25:07.938Z,80.70
2017-11-12T12:27:36.038Z,80.20
2017-11-12T12:30:04.151Z,79.90
2017-11-12T12:32:33.077Z,80.30
2017-11-12T12:35:01.210Z,80.30
2017-11-12T12:37:30.096Z,81.00
2017-11-12T12:39:59.001Z,81.10
2017-11-12T12:42:27.909Z,80.90
2017-11-12T12:44:56.806Z,81.40
2017-11-12T12:47:24.974Z,81.30
2017-11-12T12:49:53.866Z,80.30
2017-11-12T12:52:21.985Z,80.30
2017-11-12T12:54:50.215Z,80.40
2017-11-12T12:57:18.390Z,79.80
2017-11-12T12:59:46.516Z,79.00
2017-11-12T13:02:15.552Z,78.30
2017-11-12T13:04:43.676Z,78.10
2017-11-12T13:07:11.824Z,78.70
2017-11-12T13:09:41.920Z,78.80
2017-11-12T13:12:10.096Z,78.80
2017-11-12T13:14:38.259Z,78.90
2017-11-12T13:17:07.155Z,79.40
2017-11-12T13:19:35.323Z,79.40
2017-11-12T13:22:03.497Z,79.20
2017-11-12T13:24:31.592Z,80.00
2017-11-12T13:26:59.747Z,80.30
2017-11-12T13:29:27.871Z,80.50
2017-11-12T13:31:56.094Z,79.80
2017-11-12T13:34:25.583Z,79.80
2017-11-12T13:36:54.474Z,80.10
2017-11-12T13:39:22.661Z,80.10
2017-11-12T13:41:50.802Z,79.80
2017-11-12T13:44:19.722Z,79.70
2017-11-12T13:46:47.869Z,79.70
2017-11-12T13:49:16.886Z,79.30
2017-11-12T13:51:45.065Z,79.20
2017-11-12T13:54:13.259Z,79.00
2017-11-12T13:56:41.425Z,77.90
2017-11-12T13:59:09.587Z,78.00
2017-11-12T14:01:37.721Z,78.70
2017-11-12T14:04:05.865Z,77.30
2017-11-12T14:06:34.024Z,77.20
2017-11-12T14:09:02.896Z,76.50
2017-11-12T14:11:31.060Z,76.10
2017-11-12T14:13:59.234Z,75.30
2017-11-12T14:16:28.145Z,74.90
2017-11-12T14:18:56.304Z,74.80
2017-11-12T14:21:24.479Z,75.40
2017-11-12T14:23:52.659Z,75.10
2017-11-12T14:26:20.853Z,74.70
2017-11-12T14:28:48.993Z,75.40
2017-11-12T14:31:17.161Z,75.30
2017-11-12T14:33:46.055Z,75.30
2017-11-12T14:36:14.179Z,75.30
2017-11-12T14:38:43.847Z,74.90
2017-11-12T14:41:12.022Z,74.90
2017-11-12T14:43:40.336Z,74.40
2017-11-12T14:46:08.432Z,74.30
2017-11-12T14:48:37.445Z,74.30
2017-11-12T14:51:05.628Z,74.30
2017-11-12T14:53:33.777Z,74.20
2017-11-12T14:56:01.966Z,75.10
2017-11-12T14:58:30.083Z,75.40
2017-11-12T15:00:58.229Z,75.50
2017-11-12T15:03:26.487Z,75.20
2017-11-12T15:05:54.656Z,75.70
2017-11-12T15:08:23.613Z,76.10
2017-11-12T15:10:51.762Z,76.10
2017-11-12T15:13:19.899Z,76.00
2017-11-12T15:15:48.073Z,76.50
2017-11-12T15:18:17.065Z,76.50
2017-11-12T15:20:45.218Z,76.50
2017-11-12T15:23:13.415Z,75.80
2017-11-12T15:25:42.303Z,71.20
2017-11-12T15:28:10.578Z,71.20
2017-11-12T15:30:39.466Z,77.30
2017-11-12T15:33:07.749Z,77.30
2017-11-12T15:35:36.128Z,79.10
2017-11-12T15:38:04.256Z,80.80
2017-11-12T15:40:32.387Z,81.70
2017-11-12T15:43:00.742Z,82.30
2017-11-12T15:45:28.916Z,82.70
2017-11-12T15:47:57.066Z,83.40
2017-11-12T15:50:42.435Z,83.90
2017-11-12T15:53:26.033Z,83.90
2017-11-12T15:59:04.257Z,83.40
2017-11-12T16:01:36.561Z,82.20
2017-11-12T16:04:21.939Z,82.90
2017-11-12T16:07:08.701Z,82.20
2017-11-12T16:09:39.463Z,82.10
2017-11-12T16:12:07.574Z,81.90
2017-11-12T16:14:35.725Z,81.50
2017-11-12T16:17:03.846Z,82.30
2017-11-12T16:19:31.965Z,82.50
2017-11-12T16:22:00.148Z,82.40
2017-11-12T16:24:28.257Z,82.50
2017-11-12T16:26:56.389Z,82.50
2017-11-12T16:29:24.722Z,82.80
2017-11-12T16:31:52.878Z,83.20
2017-11-12T16:34:21.747Z,82.90
2017-11-12T16:36:49.879Z,82.90
2017-11-12T16:39:18.023Z,82.30
2017-11-12T16:41:46.162Z,82.20
2017-11-12T16:44:15.028Z,82.10
2017-11-12T16:46:43.248Z,82.20
2017-11-12T16:49:11.386Z,82.30
2017-11-12T16:51:40.283Z,82.30
2017-11-12T16:54:09.202Z,83.00
2017-11-12T16:56:37.347Z,82.40
2017-11-12T16:59:06.244Z,82.60
2017-11-12T17:01:34.401Z,82.60
2017-11-12T17:04:03.319Z,82.70
2017-11-12T17:06:32.772Z,83.10
2017-11-12T17:09:01.017Z,83.10
2017-11-12T17:11:29.139Z,83.10
2017-11-12T17:13:57.412Z,82.90
2017-11-12T17:16:25.559Z,82.80
2017-11-12T17:18:53.772Z,82.00
2017-11-12T17:21:21.946Z,82.10
2017-11-12T17:23:50.819Z,82.20
2017-11-12T17:26:18.942Z,82.20
2017-11-12T17:28:47.072Z,81.80
2017-11-12T17:31:15.985Z,81.70
2017-11-12T17:33:44.117Z,81.70
2017-11-12T17:36:12.247Z,81.50
2017-11-12T17:38:40.950Z,81.60
2017-11-12T17:41:09.089Z,82.10
2017-11-12T17:43:38.082Z,82.40
2017-11-12T17:46:06.212Z,81.80
2017-11-12T17:48:34.507Z,82.00
2017-11-12T17:51:04.131Z,81.80
2017-11-12T17:53:32.331Z,81.80
2017-11-12T17:56:01.288Z,81.70
2017-11-12T17:58:29.411Z,81.60
2017-11-12T18:00:57.530Z,81.30
2017-11-12T18:03:25.668Z,80.50
2017-11-12T18:05:54.163Z,80.90
2017-11-12T18:08:23.070Z,81.40
2017-11-12T18:10:52.056Z,81.30
2017-11-12T18:13:20.188Z,82.00
2017-11-12T18:15:48.329Z,81.20
2017-11-12T18:18:16.523Z,81.20
2017-11-12T18:20:45.467Z,81.10
2017-11-12T18:23:14.715Z,81.80
2017-11-12T18:25:42.904Z,82.40
2017-11-12T18:28:11.041Z,82.10
2017-11-12T18:30:39.143Z,81.90
2017-11-12T18:33:07.305Z,81.40
2017-11-12T18:35:36.198Z,81.30
2017-11-12T18:38:04.357Z,81.20
2017-11-12T18:40:32.513Z,81.50
2017-11-12T18:43:00.695Z,80.70
2017-11-12T18:45:28.845Z,80.70
2017-11-12T18:47:57.770Z,81.10
2017-11-12T18:50:25.918Z,81.10
2017-11-12T18:52:54.568Z,81.00
2017-11-12T18:55:23.496Z,81.10
2017-11-12T18:57:52.373Z,80.60
2017-11-12T19:00:27.133Z,79.90
2017-11-12T19:05:59.710Z,80.00
2017-11-12T19:08:38.557Z,80.40
2017-11-12T19:11:06.843Z,79.60
2017-11-12T19:13:36.099Z,79.20
2017-11-12T19:16:05.220Z,79.40
2017-11-12T19:21:34.448Z,78.80
2017-11-12T19:27:20.557Z,79.10
2017-11-12T19:29:51.222Z,79.10
2017-11-12T19:32:19.398Z,79.40
2017-11-12T19:34:47.550Z,79.70
2017-11-12T19:37:15.781Z,79.20
2017-11-12T19:39:44.740Z,79.80
2017-11-12T19:42:14.242Z,79.50
2017-11-12T19:44:42.819Z,79.50
2017-11-12T19:47:11.143Z,79.20
2017-11-12T19:49:39.300Z,79.00
2017-11-12T19:52:09.285Z,79.10
2017-11-12T19:54:38.362Z,78.90
2017-11-12T19:57:07.138Z,78.90
2017-11-12T19:59:36.089Z,78.80
2017-11-12T20:02:05.039Z,78.70
2017-11-12T20:04:33.193Z,78.70
2017-11-12T20:07:01.512Z,78.90
2017-11-12T20:09:29.716Z,78.80
2017-11-12T20:11:58.844Z,78.70
2017-11-12T20:14:27.998Z,78.90
2017-11-12T20:16:56.198Z,79.00
2017-11-12T20:22:21.382Z,78.50
2017-11-12T20:24:50.381Z,77.90
2017-11-12T20:27:19.314Z,77.60
2017-11-12T20:29:47.544Z,77.60
2017-11-12T20:32:16.549Z,77.30
2017-11-12T20:34:45.533Z,77.00
2017-11-12T20:37:14.499Z,77.50
2017-11-12T20:39:42.656Z,77.50
2017-11-12T20:42:10.862Z,76.90
2017-11-12T20:44:39.410Z,76.90
2017-11-12T20:47:08.068Z,76.70
2017-11-12T20:49:37.907Z,76.70
2017-11-12T20:52:06.071Z,77.10
2017-11-12T20:54:34.230Z,76.70
2017-11-12T20:57:02.605Z,75.90
2017-11-12T20:59:31.572Z,76.00
2017-11-12T21:02:00.539Z,76.40
2017-11-12T21:04:29.153Z,76.40
2017-11-12T21:07:00.800Z,76.30
2017-11-12T21:09:29.011Z,75.60
2017-11-12T21:11:57.247Z,75.40
2017-11-12T21:14:25.439Z,75.20
2017-11-12T21:16:54.405Z,74.80
2017-11-12T21:19:24.377Z,74.70
2017-11-12T21:21:56.364Z,75.00
2017-11-12T21:24:29.986Z,75.00
2017-11-12T21:30:06.338Z,74.80
2017-11-12T21:32:40.126Z,74.80
2017-11-12T21:35:11.830Z,74.60
2017-11-12T21:37:43.896Z,74.80
2017-11-12T21:40:12.012Z,75.10
2017-11-12T21:42:40.152Z,75.00
2017-11-12T21:45:08.302Z,74.50
2017-11-12T21:47:36.528Z,75.10
2017-11-12T21:50:04.718Z,74.70
2017-11-12T21:52:32.849Z,75.80
2017-11-12T21:55:02.175Z,74.70
2017-11-12T21:57:31.209Z,75.00
2017-11-12T22:00:00.219Z,75.00
2017-11-12T22:02:28.367Z,74.90
2017-11-12T22:04:56.630Z,74.30
2017-11-12T22:07:24.832Z,74.60
2017-11-12T22:09:53.003Z,74.30
2017-11-12T22:12:21.100Z,74.50
2017-11-12T22:14:49.219Z,74.80
2017-11-12T22:17:17.604Z,74.60
2017-11-12T22:19:45.761Z,74.20
2017-11-12T22:22:13.897Z,74.20
2017-11-12T22:24:42.043Z,74.40
2017-11-12T22:27:10.168Z,74.30
2017-11-12T22:29:39.076Z,74.20
2017-11-12T22:32:07.202Z,74.20
2017-11-12T22:34:35.352Z,74.40
2017-11-12T22:37:03.452Z,73.70
2017-11-12T22:39:32.441Z,73.60
2017-11-12T22:42:00.649Z,73.60
2017-11-12T22:44:28.775Z,74.00
2017-11-12T22:46:56.905Z,74.10
2017-11-12T22:49:25.015Z,74.50
2017-11-12T22:51:53.131Z,74.60
2017-11-12T22:54:21.272Z,74.40
2017-11-12T22:56:49.381Z,74.40
2017-11-12T22:59:17.525Z,74.50
2017-11-12T23:01:45.631Z,74.50
2017-11-12T23:04:13.756Z,73.80
2017-11-12T23:06:41.881Z,73.70
2017-11-12T23:11:54.674Z,74.40
2017-11-12T23:14:23.568Z,74.30
2017-11-12T23:16:52.447Z,74.20
2017-11-12T23:19:20.587Z,74.20
2017-11-12T23:21:48.713Z,74.80
2017-11-12T23:24:17.611Z,74.50
2017-11-12T23:26:45.761Z,74.50
2017-11-12T23:29:14.700Z,74.50
2017-11-12T23:31:42.831Z,74.50
2017-11-12T23:34:11.737Z,73.90
2017-11-12T23:36:39.926Z,73.90
2017-11-12T23:39:08.056Z,74.20
2017-11-12T23:41:36.159Z,73.90
2017-11-12T23:44:04.289Z,73.70
2017-11-12T23:46:32.472Z,73.90
2017-11-12T23:49:00.611Z,73.70
2017-11-12T23:51:28.721Z,73.90
2017-11-12T23:53:57.627Z,73.50
2017-11-12T23:56:25.793Z,73.60
2017-11-12T23:58:54.662Z,73.40
